createdAt,value
2018-04-27T00:00:36.707Z,101338.94
2018-04-27T00:01:39.763Z,101344.73
2018-04-27T00:02:42.890Z,101335.05
2018-04-27T00:03:45.972Z,101341.79
2018-04-27T00:04:49.047Z,101339.17
2018-04-27T00:05:52.183Z,101341.41
2018-04-27T00:06:55.219Z,101338.37
2018-04-27T00:07:58.402Z,101339.77
2018-04-27T00:09:01.477Z,101339.42
2018-04-27T00:10:04.763Z,101341.18
2018-04-27T00:11:07.877Z,101344.38
2018-04-27T00:12:11.020Z,101343.05
2018-04-27T00:13:14.163Z,101339.16
2018-04-27T00:14:17.523Z,101343.66
2018-04-27T00:15:20.582Z,101337.06
2018-04-27T00:16:23.795Z,101336.63
2018-04-27T00:17:26.942Z,101332.70
2018-04-27T00:18:30.222Z,101324.77
2018-04-27T00:19:33.269Z,101337.25
2018-04-27T00:20:36.322Z,101326.23
2018-04-27T00:21:40.202Z,101327.56
2018-04-27T00:22:43.347Z,101325.38
2018-04-27T00:23:47.480Z,101324.53
2018-04-27T00:24:50.561Z,101327.67
2018-04-27T00:25:53.641Z,101327.24
2018-04-27T00:26:56.818Z,101321.58
2018-04-27T00:27:59.891Z,101318.50
2018-04-27T00:29:02.944Z,101320.78
2018-04-27T00:30:06.068Z,101322.16
2018-04-27T00:31:09.115Z,101323.60
2018-04-27T00:32:12.206Z,101323.23
2018-04-27T00:33:15.355Z,101317.05
2018-04-27T00:34:18.440Z,101317.53
2018-04-27T00:35:21.444Z,101319.86
2018-04-27T00:36:24.619Z,101318.63
2018-04-27T00:37:27.876Z,101316.02
2018-04-27T00:38:30.981Z,101313.88
2018-04-27T00:39:34.029Z,101319.19
2018-04-27T00:40:37.067Z,101314.78
2018-04-27T00:41:40.158Z,101314.88
2018-04-27T00:42:43.602Z,101309.19
2018-04-27T00:43:46.951Z,101308.37
2018-04-27T00:44:50.034Z,101307.09
2018-04-27T00:45:53.110Z,101305.81
2018-04-27T00:46:56.221Z,101305.86
2018-04-27T00:47:59.293Z,101308.05
2018-04-27T00:49:02.330Z,101311.19
2018-04-27T00:50:05.737Z,101305.53
2018-04-27T00:51:08.849Z,101300.69
2018-04-27T00:52:11.942Z,101308.30
2018-04-27T00:53:15.781Z,101310.52
2018-04-27T00:54:18.991Z,101308.82
2018-04-27T00:55:22.012Z,101306.25
2018-04-27T00:56:25.093Z,101309.38
2018-04-27T00:57:28.253Z,101307.16
2018-04-27T00:58:31.415Z,101306.30
2018-04-27T00:59:34.451Z,101309.44
2018-04-27T01:00:37.615Z,101306.35
2018-04-27T01:01:40.944Z,101303.75
2018-04-27T01:02:44.150Z,101305.08
2018-04-27T01:03:47.343Z,101302.50
2018-04-27T01:04:50.515Z,101302.60
2018-04-27T01:05:53.682Z,101299.04
2018-04-27T01:06:56.789Z,101300.38
2018-04-27T01:07:59.908Z,101304.36
2018-04-27T01:09:03.082Z,101296.91
2018-04-27T01:10:06.136Z,101298.33
2018-04-27T01:11:09.218Z,101300.98
2018-04-27T01:12:12.251Z,101298.37
2018-04-27T01:13:15.290Z,101294.02
2018-04-27T01:14:18.469Z,101296.25
2018-04-27T01:15:21.565Z,101291.41
2018-04-27T01:16:24.674Z,101294.16
2018-04-27T01:17:27.765Z,101295.96
2018-04-27T01:18:30.798Z,101297.39
2018-04-27T01:19:34.382Z,101290.88
2018-04-27T01:20:37.406Z,101293.17
2018-04-27T01:21:40.593Z,101297.77
2018-04-27T01:22:43.667Z,101296.88
2018-04-27T01:23:46.741Z,101300.91
2018-04-27T01:24:50.979Z,101299.69
2018-04-27T01:25:54.038Z,101295.75
2018-04-27T01:26:57.163Z,101300.73
2018-04-27T01:28:00.291Z,101295.46
2018-04-27T01:29:03.403Z,101299.55
2018-04-27T01:30:06.519Z,101298.36
2018-04-27T01:31:09.622Z,101292.61
2018-04-27T01:32:12.683Z,101293.57
2018-04-27T01:33:15.849Z,101286.49
2018-04-27T01:34:18.920Z,101288.81
2018-04-27T01:35:22.085Z,101286.62
2018-04-27T01:36:25.219Z,101295.52
2018-04-27T01:37:28.277Z,101290.67
2018-04-27T01:38:31.491Z,101283.66
2018-04-27T01:39:34.635Z,101289.48
2018-04-27T01:40:37.883Z,101283.31
2018-04-27T01:41:41.126Z,101282.83
2018-04-27T01:42:44.319Z,101276.23
2018-04-27T01:43:47.383Z,101274.96
2018-04-27T01:44:50.475Z,101283.84
2018-04-27T01:45:53.748Z,101279.84
2018-04-27T01:46:56.866Z,101284.31
2018-04-27T01:47:59.914Z,101282.56
2018-04-27T01:49:02.963Z,101280.38
2018-04-27T01:50:06.071Z,101279.56
2018-04-27T01:51:09.456Z,101283.12
2018-04-27T01:52:12.609Z,101280.94
2018-04-27T01:53:15.643Z,101283.60
2018-04-27T01:54:18.842Z,101272.54
2018-04-27T01:55:22.037Z,101275.25
2018-04-27T01:56:25.168Z,101273.55
2018-04-27T01:57:28.211Z,101274.59
2018-04-27T01:58:31.370Z,101278.63
2018-04-27T01:59:34.428Z,101274.22
2018-04-27T02:00:37.669Z,101272.12
2018-04-27T02:01:40.857Z,101273.02
2018-04-27T02:02:43.963Z,101264.72
2018-04-27T02:03:47.061Z,101269.27
2018-04-27T02:04:50.232Z,101269.75
2018-04-27T02:05:53.418Z,101265.86
2018-04-27T02:06:56.686Z,101267.75
2018-04-27T02:08:00.065Z,101265.09
2018-04-27T02:09:03.479Z,101265.15
2018-04-27T02:10:06.515Z,101264.34
2018-04-27T02:11:09.590Z,101264.91
2018-04-27T02:12:12.695Z,101265.38
2018-04-27T02:13:16.161Z,101264.16
2018-04-27T02:14:19.299Z,101267.67
2018-04-27T02:15:22.352Z,101263.73
2018-04-27T02:16:25.638Z,101260.65
2018-04-27T02:17:28.696Z,101265.15
2018-04-27T02:18:31.962Z,101268.33
2018-04-27T02:19:35.047Z,101276.73
2018-04-27T02:20:38.129Z,101266.10
2018-04-27T02:21:41.198Z,101267.00
2018-04-27T02:22:44.587Z,101265.30
2018-04-27T02:23:47.626Z,101267.19
2018-04-27T02:24:51.019Z,101259.75
2018-04-27T02:25:54.253Z,101264.69
2018-04-27T02:26:57.438Z,101262.54
2018-04-27T02:28:00.680Z,101262.16
2018-04-27T02:29:04.045Z,101260.41
2018-04-27T02:30:07.128Z,101254.30
2018-04-27T02:31:10.192Z,101255.09
2018-04-27T02:32:13.405Z,101252.01
2018-04-27T02:33:16.658Z,101253.81
2018-04-27T02:34:19.719Z,101255.52
2018-04-27T02:35:22.818Z,101247.97
2018-04-27T02:36:25.947Z,101250.63
2018-04-27T02:37:29.343Z,101247.55
2018-04-27T02:38:32.710Z,101248.45
2018-04-27T02:39:35.920Z,101247.13
2018-04-27T02:40:39.300Z,101247.97
2018-04-27T02:41:42.622Z,101244.89
2018-04-27T02:42:45.750Z,101243.56
2018-04-27T02:43:48.858Z,101245.80
2018-04-27T02:44:51.969Z,101246.70
2018-04-27T02:45:55.252Z,101243.13
2018-04-27T02:46:58.366Z,101243.08
2018-04-27T02:48:01.415Z,101247.92
2018-04-27T02:49:04.455Z,101247.07
2018-04-27T02:50:07.581Z,101243.51
2018-04-27T02:51:10.717Z,101245.61
2018-04-27T02:52:13.817Z,101246.94
2018-04-27T02:53:16.959Z,101243.80
2018-04-27T02:54:20.329Z,101244.65
2018-04-27T02:55:23.648Z,101245.45
2018-04-27T02:56:26.904Z,101239.20
2018-04-27T02:57:29.955Z,101240.47
2018-04-27T02:58:33.505Z,101244.89
2018-04-27T02:59:36.588Z,101246.17
2018-04-27T03:00:39.876Z,101255.05
2018-04-27T03:01:43.116Z,101243.45
2018-04-27T03:02:46.257Z,101241.66
2018-04-27T03:03:49.369Z,101238.98
2018-04-27T03:04:52.512Z,101241.28
2018-04-27T03:05:55.762Z,101240.80
2018-04-27T03:06:58.845Z,101242.61
2018-04-27T03:08:01.905Z,101242.61
2018-04-27T03:09:05.630Z,101237.29
2018-04-27T03:10:08.741Z,101242.18
2018-04-27T03:11:12.743Z,101241.75
2018-04-27T03:12:15.961Z,101243.13
2018-04-27T03:13:19.062Z,101237.88
2018-04-27T03:14:22.298Z,101234.44
2018-04-27T03:15:25.435Z,101236.25
2018-04-27T03:16:28.530Z,101237.20
2018-04-27T03:17:31.594Z,101233.36
2018-04-27T03:18:34.732Z,101235.16
2018-04-27T03:19:37.833Z,101231.78
2018-04-27T03:20:41.200Z,101230.09
2018-04-27T03:21:44.267Z,101227.05
2018-04-27T03:22:47.311Z,101229.84
2018-04-27T03:23:50.772Z,101225.96
2018-04-27T03:24:55.220Z,101223.02
2018-04-27T03:25:58.414Z,101220.51
2018-04-27T03:27:01.454Z,101221.13
2018-04-27T03:28:04.552Z,101218.99
2018-04-27T03:29:07.880Z,101220.45
2018-04-27T03:30:11.028Z,101215.72
2018-04-27T03:31:14.543Z,101209.69
2018-04-27T03:32:17.619Z,101216.05
2018-04-27T03:33:20.940Z,101204.66
2018-04-27T03:34:24.113Z,101211.44
2018-04-27T03:35:27.326Z,101202.25
2018-04-27T03:36:30.489Z,101205.09
2018-04-27T03:37:33.649Z,101197.22
2018-04-27T03:38:36.842Z,101202.24
2018-04-27T03:39:40.071Z,101201.02
2018-04-27T03:40:43.128Z,101196.18
2018-04-27T03:41:46.275Z,101197.22
2018-04-27T03:42:49.487Z,101196.42
2018-04-27T03:43:52.825Z,101195.65
2018-04-27T03:44:55.923Z,101198.41
2018-04-27T03:45:59.072Z,101196.78
2018-04-27T03:47:02.173Z,101194.61
2018-04-27T03:48:05.297Z,101195.56
2018-04-27T03:49:08.346Z,101193.03
2018-04-27T03:50:11.491Z,101190.48
2018-04-27T03:51:14.695Z,101193.62
2018-04-27T03:52:17.781Z,101190.19
2018-04-27T03:53:20.908Z,101186.26
2018-04-27T03:54:24.050Z,101196.03
2018-04-27T03:55:27.125Z,101187.64
2018-04-27T03:56:30.227Z,101181.95
2018-04-27T03:57:33.355Z,101188.20
2018-04-27T03:58:36.407Z,101188.59
2018-04-27T03:59:51.299Z,101187.27
2018-04-27T04:02:43.309Z,101185.44
2018-04-27T04:03:58.184Z,101178.38
2018-04-27T04:05:13.206Z,101180.67
2018-04-27T04:06:16.281Z,101182.48
2018-04-27T04:07:19.503Z,101179.28
2018-04-27T04:08:22.946Z,101181.27
2018-04-27T04:09:25.988Z,101181.09
2018-04-27T04:10:29.082Z,101174.83
2018-04-27T04:11:32.167Z,101180.43
2018-04-27T04:12:35.289Z,101176.82
2018-04-27T04:13:38.411Z,101177.06
2018-04-27T04:14:41.707Z,101175.27
2018-04-27T04:15:44.756Z,101176.96
2018-04-27T04:16:47.892Z,101176.96
2018-04-27T04:17:51.014Z,101173.45
2018-04-27T04:18:54.199Z,101173.51
2018-04-27T04:19:57.265Z,101181.00
2018-04-27T04:21:00.316Z,101174.41
2018-04-27T04:22:03.604Z,101176.59
2018-04-27T04:23:06.688Z,101169.52
2018-04-27T04:24:09.813Z,101167.34
2018-04-27T04:25:13.943Z,101164.34
2018-04-27T04:26:17.046Z,101167.05
2018-04-27T04:27:20.151Z,101171.52
2018-04-27T04:28:23.250Z,101166.34
2018-04-27T04:29:26.312Z,101167.23
2018-04-27T04:30:29.431Z,101166.81
2018-04-27T04:31:32.575Z,101166.81
2018-04-27T04:33:37.794Z,101157.47
2018-04-27T04:34:40.927Z,101157.47
2018-04-27T04:35:44.085Z,101161.02
2018-04-27T04:36:47.202Z,101155.29
2018-04-27T04:37:50.282Z,101158.71
2018-04-27T04:38:53.327Z,101155.05
2018-04-27T04:39:56.421Z,101150.17
2018-04-27T04:40:59.625Z,101150.88
2018-04-27T04:42:02.725Z,101151.69
2018-04-27T04:43:05.791Z,101149.80
2018-04-27T04:44:08.861Z,101150.17
2018-04-27T04:45:11.982Z,101150.06
2018-04-27T04:46:15.037Z,101148.13
2018-04-27T04:47:18.141Z,101148.84
2018-04-27T04:48:21.214Z,101147.41
2018-04-27T04:49:24.285Z,101146.75
2018-04-27T04:50:27.496Z,101147.04
2018-04-27T04:51:30.733Z,101142.05
2018-04-27T04:52:33.807Z,101144.56
2018-04-27T04:53:36.924Z,101139.58
2018-04-27T04:54:41.524Z,101143.86
2018-04-27T04:55:44.646Z,101134.93
2018-04-27T04:56:48.360Z,101131.80
2018-04-27T04:57:51.428Z,101135.30
2018-04-27T04:58:54.530Z,101131.13
2018-04-27T04:59:57.626Z,101135.97
2018-04-27T05:01:00.770Z,101136.34
2018-04-27T05:02:03.818Z,101133.59
2018-04-27T05:03:06.875Z,101133.12
2018-04-27T05:04:10.188Z,101138.81
2018-04-27T05:05:13.273Z,101137.34
2018-04-27T05:06:16.424Z,101141.27
2018-04-27T05:07:19.774Z,101139.95
2018-04-27T05:08:22.887Z,101135.77
2018-04-27T05:09:25.935Z,101144.06
2018-04-27T05:10:29.123Z,101132.91
2018-04-27T05:11:32.225Z,101135.48
2018-04-27T05:12:35.294Z,101134.52
2018-04-27T05:13:38.399Z,101133.09
2018-04-27T05:14:41.458Z,101130.77
2018-04-27T05:15:44.646Z,101131.09
2018-04-27T05:16:47.866Z,101125.78
2018-04-27T05:17:50.959Z,101130.53
2018-04-27T05:19:04.139Z,101125.58
2018-04-27T05:20:06.704Z,101123.45
2018-04-27T05:21:09.799Z,101125.88
2018-04-27T05:22:13.007Z,101122.58
2018-04-27T05:23:16.811Z,101124.09
2018-04-27T05:24:20.055Z,101128.73
2018-04-27T05:25:23.330Z,101132.95
2018-04-27T05:26:26.427Z,101124.31
2018-04-27T05:27:29.612Z,101126.30
2018-04-27T05:28:32.670Z,101126.05
2018-04-27T05:29:35.820Z,101124.48
2018-04-27T05:30:38.882Z,101127.31
2018-04-27T05:31:42.431Z,101129.76
2018-04-27T05:32:45.715Z,101132.17
2018-04-27T05:33:49.015Z,101135.48
2018-04-27T05:34:52.059Z,101132.16
2018-04-27T05:35:55.114Z,101129.61
2018-04-27T05:36:59.119Z,101127.89
2018-04-27T05:38:02.366Z,101132.71
2018-04-27T05:39:05.500Z,101129.33
2018-04-27T05:40:08.720Z,101124.95
2018-04-27T05:41:12.970Z,101130.73
2018-04-27T05:42:16.136Z,101133.38
2018-04-27T05:43:20.093Z,101134.73
2018-04-27T05:44:23.185Z,101131.23
2018-04-27T05:45:26.313Z,101131.31
2018-04-27T05:46:29.363Z,101127.66
2018-04-27T05:47:32.471Z,101125.59
2018-04-27T05:48:35.927Z,101131.30
2018-04-27T05:49:39.037Z,101134.70
2018-04-27T05:50:42.241Z,101130.44
2018-04-27T05:51:45.331Z,101125.36
2018-04-27T05:52:48.520Z,101128.14
2018-04-27T05:53:51.960Z,101130.38
2018-04-27T05:54:55.280Z,101133.08
2018-04-27T05:55:59.270Z,101134.52
2018-04-27T05:57:02.350Z,101124.81
2018-04-27T05:58:05.508Z,101120.83
2018-04-27T05:59:08.759Z,101124.73
2018-04-27T06:00:11.937Z,101123.03
2018-04-27T06:01:15.015Z,101118.77
2018-04-27T06:02:18.173Z,101120.88
2018-04-27T06:03:21.288Z,101115.67
2018-04-27T06:04:24.414Z,101121.61
2018-04-27T06:05:27.572Z,101116.02
2018-04-27T06:06:30.674Z,101120.64
2018-04-27T06:07:33.749Z,101123.31
2018-04-27T06:08:36.915Z,101120.05
2018-04-27T06:09:40.053Z,101122.38
2018-04-27T06:10:43.298Z,101122.44
2018-04-27T06:11:46.348Z,101119.35
2018-04-27T06:12:49.427Z,101121.37
2018-04-27T06:13:52.474Z,101117.17
2018-04-27T06:14:55.562Z,101115.41
2018-04-27T06:15:58.747Z,101114.98
2018-04-27T06:17:01.928Z,101103.30
2018-04-27T06:18:05.020Z,101103.93
2018-04-27T06:19:08.078Z,101104.63
2018-04-27T06:20:11.292Z,101103.45
2018-04-27T06:21:14.423Z,101107.33
2018-04-27T06:22:17.647Z,101103.45
2018-04-27T06:23:20.704Z,101101.09
2018-04-27T06:24:23.876Z,101099.85
2018-04-27T06:25:27.203Z,101099.61
2018-04-27T06:26:30.395Z,101099.14
2018-04-27T06:27:33.467Z,101097.31
2018-04-27T06:28:51.452Z,101094.33
2018-04-27T06:29:54.547Z,101094.92
2018-04-27T06:30:57.711Z,101094.45
2018-04-27T06:32:00.798Z,101091.94
2018-04-27T06:33:04.211Z,101088.16
2018-04-27T06:34:07.375Z,101089.94
2018-04-27T06:35:10.450Z,101089.68
2018-04-27T06:36:13.555Z,101093.38
2018-04-27T06:37:16.674Z,101089.28
2018-04-27T06:38:19.894Z,101089.38
2018-04-27T06:39:23.045Z,101081.05
2018-04-27T06:40:26.191Z,101082.73
2018-04-27T06:41:29.378Z,101078.86
2018-04-27T06:42:32.508Z,101081.09
2018-04-27T06:43:35.559Z,101078.41
2018-04-27T06:44:38.694Z,101077.22
2018-04-27T06:45:41.785Z,101082.09
2018-04-27T06:46:44.857Z,101071.68
2018-04-27T06:47:47.967Z,101073.56
2018-04-27T06:48:51.214Z,101069.17
2018-04-27T06:49:54.351Z,101073.55
2018-04-27T06:50:58.197Z,101075.19
2018-04-27T06:52:01.341Z,101072.41
2018-04-27T06:53:04.644Z,101071.55
2018-04-27T06:54:07.898Z,101068.02
2018-04-27T06:55:11.097Z,101063.14
2018-04-27T06:56:14.153Z,101067.98
2018-04-27T06:57:17.273Z,101066.12
2018-04-27T06:58:20.330Z,101069.45
2018-04-27T06:59:23.664Z,101068.83
2018-04-27T07:00:27.149Z,101066.36
2018-04-27T07:02:08.970Z,101062.65
2018-04-27T07:03:12.342Z,101062.88
2018-04-27T07:04:15.790Z,101064.27
2018-04-27T07:05:19.224Z,101065.23
2018-04-27T07:06:22.710Z,101054.20
2018-04-27T07:07:26.129Z,101058.52
2018-04-27T07:08:29.524Z,101058.39
2018-04-27T07:09:32.932Z,101056.41
2018-04-27T07:10:36.291Z,101066.79
2018-04-27T07:11:39.619Z,101062.38
2018-04-27T07:12:42.971Z,101068.06
2018-04-27T07:13:46.340Z,101059.41
2018-04-27T07:14:49.674Z,101058.56
2018-04-27T07:15:53.172Z,101060.30
2018-04-27T07:16:56.563Z,101058.42
2018-04-27T07:17:59.861Z,101049.33
2018-04-27T07:19:03.236Z,101050.37
2018-04-27T07:20:06.619Z,101048.30
2018-04-27T07:21:10.075Z,101057.25
2018-04-27T07:22:13.395Z,101050.45
2018-04-27T07:23:16.747Z,101054.26
2018-04-27T07:24:20.247Z,101045.12
2018-04-27T07:25:23.681Z,101049.05
2018-04-27T07:26:27.514Z,101045.27
2018-04-27T07:27:31.078Z,101049.89
2018-04-27T07:28:34.522Z,101048.34
2018-04-27T07:29:37.984Z,101044.14
2018-04-27T07:30:41.361Z,101043.50
2018-04-27T07:31:44.673Z,101036.55
2018-04-27T07:32:48.335Z,101033.20
2018-04-27T07:33:51.733Z,101033.55
2018-04-27T07:34:55.120Z,101026.44
2018-04-27T07:35:58.571Z,101027.70
2018-04-27T07:37:01.964Z,101031.55
2018-04-27T07:38:05.566Z,101028.72
2018-04-27T07:39:08.928Z,101026.39
2018-04-27T07:40:12.500Z,101031.51
2018-04-27T07:41:15.931Z,101025.58
2018-04-27T07:42:19.366Z,101022.72
2018-04-27T07:43:22.803Z,101025.33
2018-04-27T07:44:26.283Z,101020.22
2018-04-27T07:45:29.767Z,101016.55
2018-04-27T07:46:33.114Z,101020.73
2018-04-27T07:47:36.649Z,101021.59
2018-04-27T07:48:40.050Z,101016.15
2018-04-27T07:49:43.868Z,101017.49
2018-04-27T07:50:48.578Z,101020.24
2018-04-27T07:51:52.071Z,101015.80
2018-04-27T07:52:55.571Z,101015.30
2018-04-27T07:53:58.973Z,101012.05
2018-04-27T07:55:02.337Z,101017.42
2018-04-27T07:56:05.740Z,101014.81
2018-04-27T07:57:09.076Z,101017.98
2018-04-27T07:58:12.553Z,101012.69
2018-04-27T07:59:15.918Z,101011.95
2018-04-27T08:00:19.452Z,101008.74
2018-04-27T08:01:23.113Z,101010.09
2018-04-27T08:02:26.851Z,101011.60
2018-04-27T08:03:30.263Z,101003.81
2018-04-27T08:04:33.658Z,101009.31
2018-04-27T08:05:36.997Z,101009.39
2018-04-27T08:06:40.380Z,101008.30
2018-04-27T08:07:44.065Z,101010.73
2018-04-27T08:08:47.394Z,101008.61
2018-04-27T08:09:50.814Z,101008.12
2018-04-27T08:10:54.297Z,101014.82
2018-04-27T08:11:57.763Z,101007.52
2018-04-27T08:13:01.278Z,101009.63
2018-04-27T08:14:04.837Z,101010.91
2018-04-27T08:15:08.445Z,101005.12
2018-04-27T08:16:12.204Z,101011.05
2018-04-27T08:17:15.712Z,101009.70
2018-04-27T08:18:19.600Z,101006.03
2018-04-27T08:19:22.983Z,101009.39
2018-04-27T08:20:27.810Z,101005.64
2018-04-27T08:21:31.260Z,101001.02
2018-04-27T08:22:36.676Z,101004.41
2018-04-27T08:23:40.219Z,101005.49
2018-04-27T08:24:43.617Z,101007.50
2018-04-27T08:25:47.075Z,101005.59
2018-04-27T08:26:50.748Z,101003.69
2018-04-27T08:27:54.319Z,101007.95
2018-04-27T08:29:00.544Z,101002.02
2018-04-27T08:30:03.940Z,100998.31
2018-04-27T08:31:07.438Z,101003.11
2018-04-27T08:32:11.196Z,100999.16
2018-04-27T08:33:14.667Z,100999.27
2018-04-27T08:34:18.081Z,100999.94
2018-04-27T08:35:21.476Z,100995.34
2018-04-27T08:36:24.877Z,100996.44
2018-04-27T08:37:28.380Z,100993.58
2018-04-27T08:38:31.946Z,100999.29
2018-04-27T08:39:35.275Z,100993.58
2018-04-27T08:40:40.806Z,100985.53
2018-04-27T08:41:44.646Z,100985.63
2018-04-27T08:42:49.104Z,100989.73
2018-04-27T08:43:52.723Z,100982.25
2018-04-27T08:44:56.146Z,100983.17
2018-04-27T08:46:00.027Z,100974.70
2018-04-27T08:47:03.358Z,100980.91
2018-04-27T08:48:06.851Z,100978.58
2018-04-27T08:49:10.338Z,100980.59
2018-04-27T08:50:14.002Z,100980.26
2018-04-27T08:51:17.488Z,100982.13
2018-04-27T08:52:20.856Z,100982.14
2018-04-27T08:53:24.469Z,100982.73
2018-04-27T08:54:29.749Z,100983.25
2018-04-27T08:55:33.250Z,100983.60
2018-04-27T08:56:37.567Z,100984.34
2018-04-27T08:57:41.017Z,100979.17
2018-04-27T08:58:46.646Z,100978.50
2018-04-27T08:59:53.913Z,100977.33
2018-04-27T09:00:57.326Z,100983.61
2018-04-27T09:02:00.846Z,100980.86
2018-04-27T09:03:04.231Z,100982.77
2018-04-27T09:04:07.815Z,100980.61
2018-04-27T09:05:11.284Z,100979.77
2018-04-27T09:06:14.853Z,100980.34
2018-04-27T09:07:18.197Z,100976.92
2018-04-27T09:08:21.594Z,100974.38
2018-04-27T09:09:25.639Z,100972.87
2018-04-27T09:10:28.990Z,100975.13
2018-04-27T09:11:32.406Z,100975.13
2018-04-27T09:12:35.814Z,100964.05
2018-04-27T09:13:39.150Z,100968.42
2018-04-27T09:14:42.667Z,100965.14
2018-04-27T09:15:46.020Z,100970.78
2018-04-27T09:16:49.478Z,100964.09
2018-04-27T09:17:53.940Z,100963.34
2018-04-27T09:18:58.457Z,100961.81
2018-04-27T09:20:01.876Z,100959.41
2018-04-27T09:21:05.638Z,100958.58
2018-04-27T09:22:09.081Z,100954.64
2018-04-27T09:23:12.486Z,100951.78
2018-04-27T09:24:16.125Z,100950.53
2018-04-27T09:25:19.545Z,100948.36
2018-04-27T09:26:23.013Z,100950.59
2018-04-27T09:27:26.688Z,100956.70
2018-04-27T09:28:30.093Z,100946.14
2018-04-27T09:29:34.623Z,100941.70
2018-04-27T09:30:38.028Z,100938.19
2018-04-27T09:31:42.975Z,100939.77
2018-04-27T09:32:46.514Z,100943.98
2018-04-27T09:33:49.912Z,100940.12
2018-04-27T09:34:53.376Z,100937.02
2018-04-27T09:35:57.021Z,100942.72
2018-04-27T09:37:00.428Z,100938.77
2018-04-27T09:38:04.166Z,100935.59
2018-04-27T09:39:07.785Z,100936.59
2018-04-27T09:40:11.413Z,100933.07
2018-04-27T09:41:15.117Z,100933.73
2018-04-27T09:42:18.756Z,100933.58
2018-04-27T09:43:22.161Z,100932.55
2018-04-27T09:44:26.047Z,100939.19
2018-04-27T09:45:29.468Z,100935.77
2018-04-27T09:46:33.650Z,100928.94
2018-04-27T09:47:38.815Z,100929.28
2018-04-27T09:48:42.319Z,100921.98
2018-04-27T09:49:45.927Z,100914.58
2018-04-27T09:50:49.377Z,100917.42
2018-04-27T09:51:52.805Z,100910.86
2018-04-27T09:52:56.177Z,100903.06
2018-04-27T09:53:59.565Z,100905.91
2018-04-27T09:55:03.807Z,100908.86
2018-04-27T09:56:07.210Z,100903.30
2018-04-27T09:57:10.811Z,100896.08
2018-04-27T09:58:14.902Z,100891.97
2018-04-27T09:59:19.343Z,100889.20
2018-04-27T10:00:23.401Z,100900.53
2018-04-27T10:01:26.907Z,100896.92
2018-04-27T10:02:31.202Z,100892.70
2018-04-27T10:03:34.899Z,100883.91
2018-04-27T10:04:38.496Z,100884.37
2018-04-27T10:05:41.932Z,100887.14
2018-04-27T10:06:45.468Z,100879.60
2018-04-27T10:07:48.864Z,100874.91
2018-04-27T10:08:52.363Z,100871.11
2018-04-27T10:09:55.701Z,100866.58
2018-04-27T10:10:59.091Z,100869.19
2018-04-27T10:12:02.506Z,100865.07
2018-04-27T10:13:06.120Z,100864.15
2018-04-27T10:14:09.470Z,100862.69
2018-04-27T10:15:13.020Z,100859.00
2018-04-27T10:16:16.468Z,100859.58
2018-04-27T10:17:20.036Z,100858.80
2018-04-27T10:18:23.578Z,100856.69
2018-04-27T10:19:27.256Z,100857.71
2018-04-27T10:20:30.663Z,100857.02
2018-04-27T10:21:34.352Z,100857.51
2018-04-27T10:22:38.057Z,100856.73
2018-04-27T10:23:41.689Z,100853.69
2018-04-27T10:24:45.313Z,100852.41
2018-04-27T10:25:48.665Z,100855.17
2018-04-27T10:26:52.164Z,100840.28
2018-04-27T10:27:55.635Z,100847.58
2018-04-27T10:28:59.215Z,100849.48
2018-04-27T10:30:04.644Z,100841.14
2018-04-27T10:31:09.995Z,100843.67
2018-04-27T10:32:14.872Z,100842.47
2018-04-27T10:33:19.431Z,100841.19
2018-04-27T10:34:24.458Z,100848.41
2018-04-27T10:35:30.073Z,100839.97
2018-04-27T10:36:36.021Z,100837.20
2018-04-27T10:37:39.767Z,100833.89
2018-04-27T10:38:43.117Z,100841.80
2018-04-27T10:39:46.556Z,100836.77
2018-04-27T10:40:50.179Z,100839.77
2018-04-27T10:41:53.663Z,100833.80
2018-04-27T10:42:57.371Z,100824.80
2018-04-27T10:44:01.625Z,100827.41
2018-04-27T10:45:06.061Z,100817.88
2018-04-27T10:46:09.659Z,100822.16
2018-04-27T10:47:13.243Z,100814.31
2018-04-27T10:48:16.850Z,100818.61
2018-04-27T10:49:20.857Z,100811.62
2018-04-27T10:50:24.194Z,100816.95
2018-04-27T10:51:27.744Z,100815.88
2018-04-27T10:52:31.051Z,100810.23
2018-04-27T10:53:34.532Z,100808.50
2018-04-27T10:54:37.895Z,100806.82
2018-04-27T10:55:41.321Z,100811.78
2018-04-27T10:56:44.897Z,100811.44
2018-04-27T10:57:48.758Z,100812.06
2018-04-27T10:58:52.306Z,100802.64
2018-04-27T10:59:56.183Z,100810.17
2018-04-27T11:00:59.564Z,100801.38
2018-04-27T11:02:02.978Z,100800.31
2018-04-27T11:03:06.343Z,100791.90
2018-04-27T11:04:09.723Z,100790.47
2018-04-27T11:05:13.445Z,100787.58
2018-04-27T11:06:16.948Z,100784.73
2018-04-27T11:07:20.481Z,100786.55
2018-04-27T11:08:23.915Z,100785.69
2018-04-27T11:09:27.538Z,100785.13
2018-04-27T11:10:31.016Z,100785.33
2018-04-27T11:11:34.621Z,100787.16
2018-04-27T11:12:38.327Z,100779.92
2018-04-27T11:13:41.848Z,100783.02
2018-04-27T11:14:45.478Z,100777.98
2018-04-27T11:15:48.889Z,100774.84
2018-04-27T11:16:52.703Z,100773.22
2018-04-27T11:17:55.861Z,100770.73
2018-04-27T11:18:59.513Z,100762.64
2018-04-27T11:20:03.056Z,100760.30
2018-04-27T11:21:06.526Z,100769.17
2018-04-27T11:22:09.950Z,100760.17
2018-04-27T11:23:13.468Z,100768.87
2018-04-27T11:24:17.054Z,100760.23
2018-04-27T11:25:20.737Z,100767.13
2018-04-27T11:26:25.334Z,100770.11
2018-04-27T11:27:28.828Z,100768.71
2018-04-27T11:28:32.490Z,100765.13
2018-04-27T11:29:35.876Z,100762.87
2018-04-27T11:30:39.349Z,100758.33
2018-04-27T11:31:43.418Z,100751.04
2018-04-27T11:32:47.113Z,100754.52
2018-04-27T11:33:50.627Z,100753.62
2018-04-27T11:34:54.414Z,100749.61
2018-04-27T11:35:57.860Z,100748.20
2018-04-27T11:37:01.322Z,100740.63
2018-04-27T11:38:04.891Z,100738.36
2018-04-27T11:39:08.397Z,100743.75
2018-04-27T11:40:11.991Z,100737.77
2018-04-27T11:41:15.548Z,100730.97
2018-04-27T11:42:18.947Z,100728.50
2018-04-27T11:43:22.398Z,100729.34
2018-04-27T11:44:25.992Z,100719.33
2018-04-27T11:45:29.889Z,100714.76
2018-04-27T11:46:34.599Z,100714.76
2018-04-27T11:47:37.998Z,100707.64
2018-04-27T11:48:41.447Z,100711.77
2018-04-27T11:49:44.921Z,100705.34
2018-04-27T11:50:48.412Z,100704.53
2018-04-27T11:51:51.897Z,100702.34
2018-04-27T11:52:55.236Z,100695.48
2018-04-27T11:53:58.570Z,100698.42
2018-04-27T11:55:02.019Z,100696.06
2018-04-27T11:56:05.507Z,100681.69
2018-04-27T11:57:08.908Z,100686.73
2018-04-27T11:58:12.328Z,100684.13
2018-04-27T11:59:15.725Z,100680.00
2018-04-27T12:00:21.675Z,100682.95
2018-04-27T12:01:25.209Z,100676.52
2018-04-27T12:02:28.543Z,100675.23
2018-04-27T12:03:32.159Z,100667.13
2018-04-27T12:04:35.530Z,100666.76
2018-04-27T12:05:39.109Z,100649.65
2018-04-27T12:06:42.540Z,100649.95
2018-04-27T12:07:46.044Z,100661.19